Time;durP1;ratioP1;P1;durP2;ratioP2;P2;SDS_P1;SDS_P2;PMS_P1;PMS_P2;Temp;Humidity;BMP_temperature;BMP_pressure;BME280_temperature;BME280_humidity;BME280_pressure;Samples;Min_cycle;Max_cycle;Signal;HPM_P1;HPM_P2
2021/10/01 00:02:07;;;;;;;8.02;1.20;;;;;;;10.23;100.00;101916.59;5159589;28;20033;-76
2021/10/01 00:04:38;;;;;;;8.73;1.27;;;;;;;10.27;100.00;101902.81;5159673;28;20033;-75
2021/10/01 00:07:10;;;;;;;6.93;1.63;;;;;;;10.32;100.00;101913.97;5159433;28;20118;-76
2021/10/01 00:09:42;;;;;;;5.88;1.17;;;;;;;10.40;100.00;101913.28;5141572;28;20054;-75
2021/10/01 00:12:12;;;;;;;3.55;0.90;;;;;;;10.39;100.00;101908.88;5159422;28;20030;-75
2021/10/01 00:14:43;;;;;;;3.97;0.90;;;;;;;10.44;100.00;101913.84;5159520;28;20170;-76
2021/10/01 00:17:15;;;;;;;2.38;0.90;;;;;;;10.49;100.00;101901.72;5159623;28;20399;-75
2021/10/01 00:19:46;;;;;;;8.40;1.17;;;;;;;10.55;100.00;101892.28;5159100;28;20425;-76
2021/10/01 00:22:16;;;;;;;6.60;1.10;;;;;;;10.62;100.00;101896.91;5142727;28;20034;-75
2021/10/01 00:24:47;;;;;;;2.65;1.30;;;;;;;10.65;100.00;101892.28;5159273;28;20027;-76
2021/10/01 00:27:18;;;;;;;5.22;0.80;;;;;;;10.76;100.00;101892.13;5142227;28;20026;-75
2021/10/01 00:29:49;;;;;;;5.13;1.10;;;;;;;10.78;100.00;101890.97;5158990;28;20053;-76
2021/10/01 00:32:19;;;;;;;3.53;1.00;;;;;;;10.80;100.00;101882.81;5159516;28;20050;-75
2021/10/01 00:34:51;;;;;;;4.18;1.17;;;;;;;10.81;100.00;101882.66;5159476;28;20038;-75
2021/10/01 00:37:21;;;;;;;5.93;0.98;;;;;;;10.81;100.00;101877.28;5141787;28;20023;-75
2021/10/01 00:39:53;;;;;;;4.85;1.27;;;;;;;10.85;100.00;101877.84;5158875;28;20018;-76
2021/10/01 00:42:23;;;;;;;5.00;0.95;;;;;;;10.83;100.00;101879.81;5159116;28;20057;-75
2021/10/01 00:44:54;;;;;;;5.50;1.42;;;;;;;10.80;100.00;101874.75;5159322;28;20065;-76
2021/10/01 00:47:25;;;;;;;6.90;1.27;;;;;;;10.76;100.00;101878.72;5159074;28;20038;-75
2021/10/01 00:49:55;;;;;;;3.60;1.05;;;;;;;10.75;100.00;101880.53;5161161;28;20030;-76
2021/10/01 00:52:26;;;;;;;5.07;1.10;;;;;;;10.78;100.00;101874.03;5163499;28;20030;-76
2021/10/01 00:54:58;;;;;;;6.70;1.02;;;;;;;10.81;100.00;101871.91;5163145;28;20030;-76
2021/10/01 00:57:28;;;;;;;5.30;1.48;;;;;;;10.81;100.00;101869.22;5163534;28;20495;-76
2021/10/01 00:59:59;;;;;;;4.65;1.27;;;;;;;10.91;100.00;101871.06;5163052;28;20034;-75
2021/10/01 01:02:30;;;;;;;4.93;0.98;;;;;;;10.89;100.00;101866.69;5163386;28;20030;-75
2021/10/01 01:05:03;;;;;;;6.15;1.10;;;;;;;10.96;100.00;101866.94;5163461;28;20082;-76
2021/10/01 01:07:43;;;;;;;5.88;1.10;;;;;;;11.02;100.00;101862.84;5163348;28;20503;-75
2021/10/01 01:10:29;;;;;;;4.53;0.90;;;;;;;11.06;100.00;101858.88;5162939;28;20022;-75
2021/10/01 01:13:14;;;;;;;2.55;1.05;;;;;;;11.03;100.00;101857.31;5163128;28;20061;-75
2021/10/01 01:15:51;;;;;;;2.63;0.70;;;;;;;11.05;100.00;101855.34;5163233;28;20117;-75
2021/10/01 01:18:30;;;;;;;7.18;1.60;;;;;;;11.08;100.00;101846.13;5130173;28;20026;-75
2021/10/01 01:21:03;;;;;;;3.08;0.82;;;;;;;11.09;100.00;101843.34;5162305;28;20062;-75
2021/10/01 01:23:41;;;;;;;3.05;1.08;;;;;;;11.10;100.00;101847.72;5162717;28;20022;-76
2021/10/01 01:26:39;;;;;;;2.38;0.98;;;;;;;11.05;100.00;101846.44;5162681;28;20036;-76
2021/10/01 01:29:23;;;;;;;3.67;0.93;;;;;;;11.02;100.00;101842.19;5162118;28;20364;-75
2021/10/01 01:31:54;;;;;;;3.45;1.30;;;;;;;11.00;100.00;101825.41;5162751;28;20490;-75
2021/10/01 01:34:34;;;;;;;5.78;0.70;;;;;;;11.00;100.00;101832.63;5162595;28;20042;-76
2021/10/01 01:37:32;;;;;;;7.43;0.93;;;;;;;11.03;100.00;101825.09;5162331;28;20061;-76
2021/10/01 01:40:04;;;;;;;6.22;0.95;;;;;;;11.04;100.00;101816.03;5144681;28;20483;-76
2021/10/01 01:42:37;;;;;;;5.47;1.05;;;;;;;11.01;100.00;101812.81;5157035;28;20023;-75
2021/10/01 01:45:09;;;;;;;9.35;1.02;;;;;;;10.98;100.00;101808.56;5155439;28;20037;-75
2021/10/01 01:47:42;;;;;;;6.25;1.20;;;;;;;11.03;100.00;101805.44;5149446;28;20030;-76
2021/10/01 01:50:16;;;;;;;6.43;1.25;;;;;;;11.15;100.00;101805.16;5144511;28;20022;-76
2021/10/01 01:52:49;;;;;;;5.20;1.30;;;;;;;11.19;100.00;101813.72;5162360;28;20505;-75
2021/10/01 01:55:20;;;;;;;10.23;1.00;;;;;;;11.20;100.00;101809.22;5162208;28;20030;-75
2021/10/01 01:57:54;;;;;;;5.53;1.08;;;;;;;11.23;100.00;101807.06;5162211;28;20030;-75
2021/10/01 02:00:27;;;;;;;4.57;1.05;;;;;;;11.23;100.00;101808.91;5161038;28;20038;-76
2021/10/01 02:02:59;;;;;;;4.78;0.80;;;;;;;11.25;100.00;101802.44;5161771;28;20026;-76
2021/10/01 02:05:31;;;;;;;7.25;1.15;;;;;;;11.29;100.00;101802.94;5161854;28;20041;-76
2021/10/01 02:08:02;;;;;;;9.35;1.20;;;;;;;11.28;100.00;101798.56;5161452;28;20022;-75
2021/10/01 02:10:43;;;;;;;6.00;1.17;;;;;;;11.30;100.00;101791.25;5161618;28;20028;-75
2021/10/01 02:13:14;;;;;;;3.97;0.90;;;;;;;11.29;100.00;101782.31;5161372;28;20026;-76
2021/10/01 02:15:52;;;;;;;9.98;1.50;;;;;;;11.35;100.00;101786.25;5161923;28;20037;-75
2021/10/01 02:18:25;;;;;;;9.05;1.38;;;;;;;11.37;100.00;101774.38;5161524;28;20036;-76
2021/10/01 02:20:57;;;;;;;7.30;1.20;;;;;;;11.41;100.00;101772.22;5161047;28;20580;-75
2021/10/01 02:23:28;;;;;;;6.68;0.90;;;;;;;11.42;100.00;101765.84;5161285;28;20461;-76
2021/10/01 02:28:56;;;;;;;5.05;0.90;;;;;;;11.44;100.00;101763.84;5161592;28;20034;-75
2021/10/01 02:31:37;;;;;;;9.23;1.17;;;;;;;11.51;100.00;101769.50;5161780;28;20033;-76
2021/10/01 02:34:09;;;;;;;5.13;0.90;;;;;;;11.51;100.00;101766.81;5161683;28;20506;-75
2021/10/01 02:36:39;;;;;;;10.98;1.40;;;;;;;11.51;100.00;101767.66;5161504;28;20026;-75
2021/10/01 02:39:10;;;;;;;2.45;0.98;;;;;;;11.48;100.00;101767.94;5160892;28;20513;-75
2021/10/01 02:41:40;;;;;;;5.88;1.00;;;;;;;11.40;100.00;101762.47;5161137;28;20069;-75
2021/10/01 02:44:11;;;;;;;5.43;1.02;;;;;;;11.34;100.00;101760.38;5147725;28;20022;-76
2021/10/01 02:46:41;;;;;;;5.07;1.13;;;;;;;11.39;100.00;101755.41;5143663;28;20018;-76
2021/10/01 02:49:12;;;;;;;4.22;1.10;;;;;;;11.33;100.00;101758.69;5160499;28;20014;-76
2021/10/01 02:51:49;;;;;;;2.67;1.08;;;;;;;11.28;100.00;101758.28;5160924;28;20026;-75
2021/10/01 02:54:30;;;;;;;5.07;0.98;;;;;;;11.33;100.00;101756.00;5161421;28;20053;-76
2021/10/01 02:57:10;;;;;;;5.57;1.15;;;;;;;11.34;100.00;101763.06;5160771;28;20038;-76
2021/10/01 02:59:44;;;;;;;2.53;0.95;;;;;;;11.31;100.00;101766.06;5160584;28;20030;-75
2021/10/01 03:02:16;;;;;;;2.37;0.97;;;;;;;11.25;100.00;101751.38;5143183;28;20030;-75
2021/10/01 03:04:50;;;;;;;7.03;2.53;;;;;;;11.19;100.00;101751.97;5159984;28;20030;-75
2021/10/01 03:07:23;;;;;;;4.32;1.15;;;;;;;11.14;100.00;101749.75;5160508;28;20118;-75
2021/10/01 03:09:56;;;;;;;4.22;1.00;;;;;;;11.16;100.00;101741.53;5160034;28;20026;-75
2021/10/01 03:12:28;;;;;;;5.43;0.95;;;;;;;11.20;100.00;101736.72;5159843;28;20034;-76
2021/10/01 03:15:01;;;;;;;6.30;0.98;;;;;;;11.23;100.00;101744.47;5160699;28;20040;-75
2021/10/01 03:17:32;;;;;;;4.93;1.52;;;;;;;11.23;100.00;101747.97;5160658;28;20039;-75
2021/10/01 03:20:05;;;;;;;5.03;1.20;;;;;;;11.25;100.00;101740.66;5160080;28;20030;-75
2021/10/01 03:22:39;;;;;;;4.45;1.23;;;;;;;11.23;100.00;101733.72;5143512;28;20108;-75
2021/10/01 03:25:12;;;;;;;8.57;1.17;;;;;;;11.24;100.00;101730.03;5160385;28;20034;-76
2021/10/01 03:27:42;;;;;;;4.70;1.17;;;;;;;11.20;100.00;101721.44;5160115;28;20459;-75
2021/10/01 03:30:13;;;;;;;4.07;1.08;;;;;;;11.17;100.00;101721.72;5159626;28;20097;-75
2021/10/01 03:32:46;;;;;;;6.03;1.10;;;;;;;11.11;100.00;101720.50;5160277;28;20513;-76
2021/10/01 03:35:16;;;;;;;4.82;1.20;;;;;;;11.01;100.00;101710.78;5142794;28;20030;-75
2021/10/01 03:37:47;;;;;;;6.30;1.17;;;;;;;10.95;100.00;101703.34;5160058;28;20022;-76
2021/10/01 03:40:18;;;;;;;6.13;1.25;;;;;;;10.87;100.00;101688.78;5159630;28;20031;-75
2021/10/01 03:42:48;;;;;;;2.78;0.88;;;;;;;10.84;100.00;101686.41;5152604;28;20027;-76
2021/10/01 03:45:18;;;;;;;4.45;1.10;;;;;;;10.77;100.00;101681.78;5154558;28;20037;-76
2021/10/01 03:47:49;;;;;;;8.90;1.35;;;;;;;10.76;100.00;101686.28;5160148;28;20403;-75
2021/10/01 03:50:19;;;;;;;2.55;1.00;;;;;;;10.74;100.00;101685.59;5159906;28;20395;-75
2021/10/01 03:52:50;;;;;;;7.43;1.30;;;;;;;10.70;100.00;101680.69;5160290;28;20018;-75
2021/10/01 03:55:21;;;;;;;8.65;1.52;;;;;;;10.64;100.00;101674.03;5159620;28;20041;-75
2021/10/01 03:57:52;;;;;;;4.45;1.10;;;;;;;10.58;100.00;101669.25;5160181;28;20391;-76
2021/10/01 04:00:24;;;;;;;5.03;1.13;;;;;;;10.67;100.00;101659.50;5159584;28;20022;-76
2021/10/01 04:02:54;;;;;;;8.32;1.13;;;;;;;10.59;100.00;101657.53;5159865;28;20045;-75
2021/10/01 04:05:25;;;;;;;5.65;1.20;;;;;;;10.50;100.00;101653.06;5159441;28;20030;-76
2021/10/01 04:07:55;;;;;;;8.00;1.65;;;;;;;10.52;100.00;101645.72;5159630;28;20041;-76
2021/10/01 04:10:26;;;;;;;6.78;1.27;;;;;;;10.47;100.00;101643.47;5159688;28;20368;-76
2021/10/01 04:12:56;;;;;;;5.00;1.00;;;;;;;10.47;100.00;101639.94;5159684;28;20026;-76
2021/10/01 04:15:27;;;;;;;5.72;1.38;;;;;;;10.48;100.00;101644.31;5159793;28;20101;-76
2021/10/01 04:17:57;;;;;;;5.93;1.30;;;;;;;10.40;100.00;101634.31;5159339;28;20027;-76
2021/10/01 04:20:28;;;;;;;3.88;1.13;;;;;;;10.47;100.00;101634.56;5159422;28;20113;-75
2021/10/01 04:22:58;;;;;;;4.85;1.10;;;;;;;10.46;100.00;101627.53;5160302;28;20073;-76
2021/10/01 04:25:31;;;;;;;4.15;1.08;;;;;;;10.40;100.00;101628.13;5164239;28;20083;-75
2021/10/01 04:28:05;;;;;;;2.65;1.15;;;;;;;10.36;100.00;101628.38;5163647;28;20034;-75
2021/10/01 04:30:43;;;;;;;4.93;1.25;;;;;;;10.33;100.00;101630.50;5162829;28;20386;-76
2021/10/01 04:33:17;;;;;;;5.15;1.10;;;;;;;10.27;100.00;101621.22;5163718;28;20116;-75
2021/10/01 04:35:49;;;;;;;6.07;1.08;;;;;;;10.33;100.00;101622.47;5163435;28;20030;-76
2021/10/01 04:38:21;;;;;;;8.32;1.38;;;;;;;10.43;100.00;101628.66;5163448;28;20026;-76
2021/10/01 04:40:52;;;;;;;4.00;1.25;;;;;;;10.49;100.00;101621.84;5162468;28;20109;-76
2021/10/01 04:43:22;;;;;;;8.57;1.17;;;;;;;10.50;100.00;101613.66;5142139;28;20486;-75
2021/10/01 04:45:54;;;;;;;3.70;1.25;;;;;;;10.50;100.00;101613.66;5145920;28;20053;-76
2021/10/01 04:48:25;;;;;;;6.43;1.98;;;;;;;10.52;100.00;101619.72;5146127;28;20025;-75
2021/10/01 04:50:55;;;;;;;4.00;1.08;;;;;;;10.46;100.00;101617.63;5163596;28;20030;-76
2021/10/01 04:53:26;;;;;;;9.90;1.48;;;;;;;10.43;100.00;101609.03;5145771;28;20383;-76
2021/10/01 04:55:56;;;;;;;3.88;1.33;;;;;;;10.42;100.00;101613.53;5163444;28;20105;-76
2021/10/01 04:58:27;;;;;;;7.32;1.60;;;;;;;10.44;100.00;101608.91;5145571;28;20501;-76
2021/10/01 05:01:01;;;;;;;7.95;1.55;;;;;;;10.40;100.00;101610.19;5162873;28;20037;-76
2021/10/01 05:03:32;;;;;;;13.37;1.60;;;;;;;10.37;100.00;101607.78;5162790;28;20026;-76
2021/10/01 05:06:02;;;;;;;6.13;1.30;;;;;;;10.37;100.00;101605.94;5145552;28;20611;-76
2021/10/01 05:08:33;;;;;;;3.13;1.00;;;;;;;10.32;100.00;101602.84;5162768;28;20387;-76
2021/10/01 05:11:04;;;;;;;4.00;1.40;;;;;;;10.26;100.00;101597.22;5162722;28;20034;-76
2021/10/01 05:13:34;;;;;;;2.97;1.52;;;;;;;10.26;100.00;101605.28;5163046;28;20096;-76
2021/10/01 05:16:04;;;;;;;8.13;1.48;;;;;;;10.28;100.00;101601.44;5145379;28;20023;-75
2021/10/01 05:18:35;;;;;;;4.78;1.25;;;;;;;10.26;100.00;101598.06;5162342;28;20549;-76
2021/10/01 05:21:05;;;;;;;4.68;1.08;;;;;;;10.28;100.00;101603.28;5162392;28;20034;-76
2021/10/01 05:23:36;;;;;;;5.53;1.63;;;;;;;10.30;100.00;101599.47;5145300;28;20514;-75
2021/10/01 05:26:07;;;;;;;9.20;1.67;;;;;;;10.31;100.00;101598.47;5162696;28;20089;-75
2021/10/01 05:28:37;;;;;;;6.45;1.65;;;;;;;10.29;100.00;101596.91;5144945;28;20053;-76
2021/10/01 05:31:08;;;;;;;2.95;1.20;;;;;;;10.34;100.00;101594.66;5162123;28;20041;-75
2021/10/01 05:33:38;;;;;;;3.22;1.33;;;;;;;10.37;100.00;101583.63;5156126;28;20035;-77
2021/10/01 05:36:11;;;;;;;5.20;1.27;;;;;;;10.41;100.00;101597.59;5148217;28;20030;-75
2021/10/01 05:38:41;;;;;;;5.75;1.40;;;;;;;10.44;100.00;101595.47;5160898;28;20041;-76
2021/10/01 05:41:12;;;;;;;5.65;1.83;;;;;;;10.49;100.00;101593.22;5162137;28;20038;-76
2021/10/01 05:43:42;;;;;;;7.68;1.30;;;;;;;10.55;100.00;101595.28;5148350;28;20422;-76
2021/10/01 05:46:14;;;;;;;5.47;1.75;;;;;;;10.58;100.00;101600.34;5166052;28;20030;-75
2021/10/01 05:48:50;;;;;;;5.90;1.70;;;;;;;10.54;100.00;101590.94;5144525;28;20097;-75
2021/10/01 05:51:20;;;;;;;5.32;1.45;;;;;;;10.58;100.00;101594.97;5128779;28;20066;-76
2021/10/01 05:54:11;;;;;;;7.07;1.52;;;;;;;10.63;100.00;101583.81;5160730;28;20368;-76
2021/10/01 05:56:41;;;;;;;2.95;0.98;;;;;;;10.67;100.00;101589.72;5161201;28;20038;-77
2021/10/01 05:59:12;;;;;;;5.88;1.40;;;;;;;10.67;100.00;101593.25;5160621;28;20029;-76
2021/10/01 06:01:43;;;;;;;4.53;1.33;;;;;;;10.69;100.00;101595.78;5160789;28;20034;-76
2021/10/01 06:04:13;;;;;;;8.18;1.33;;;;;;;10.71;100.00;101593.81;5143356;28;20101;-76
2021/10/01 06:06:44;;;;;;;4.38;1.00;;;;;;;10.73;100.00;101591.81;5160744;28;20041;-76
2021/10/01 06:09:17;;;;;;;6.22;1.13;;;;;;;10.78;100.00;101594.88;5160280;28;20026;-76
2021/10/01 06:11:49;;;;;;;3.10;1.30;;;;;;;10.81;100.00;101586.53;5160857;28;20063;-76
2021/10/01 06:14:23;;;;;;;7.63;1.92;;;;;;;10.82;100.00;101593.59;5143690;28;20077;-76
2021/10/01 06:16:53;;;;;;;4.50;1.45;;;;;;;10.83;100.00;101592.59;5147629;28;20038;-76
2021/10/01 06:19:24;;;;;;;8.23;1.73;;;;;;;10.85;100.00;101590.63;5142743;28;20033;-77
2021/10/01 06:21:56;;;;;;;5.55;1.73;;;;;;;10.89;100.00;101589.31;5160823;28;20018;-76
2021/10/01 06:24:27;;;;;;;10.52;2.80;;;;;;;10.87;100.00;101596.69;5142990;28;20117;-76
2021/10/01 06:26:58;;;;;;;9.63;1.60;;;;;;;10.95;100.00;101590.56;5161291;28;20391;-76
2021/10/01 06:29:31;;;;;;;5.97;1.45;;;;;;;11.00;100.00;101586.44;5159630;28;20038;-76
2021/10/01 06:32:02;;;;;;;5.15;1.55;;;;;;;11.13;100.00;101591.44;5143419;28;20041;-77
2021/10/01 06:34:32;;;;;;;7.88;1.60;;;;;;;11.27;100.00;101590.91;5160316;28;20050;-76
2021/10/01 06:37:03;;;;;;;4.03;1.13;;;;;;;11.35;100.00;101587.47;5142789;28;20034;-76
2021/10/01 06:39:34;;;;;;;8.20;1.75;;;;;;;11.34;100.00;101581.22;5142380;28;20121;-76
2021/10/01 06:42:05;;;;;;;6.68;1.45;;;;;;;11.33;100.00;101584.06;5125553;28;20023;-78
2021/10/01 06:44:36;;;;;;;2.88;1.30;;;;;;;11.27;100.00;101582.00;5147640;28;20045;-76
2021/10/01 06:47:10;;;;;;;3.22;1.15;;;;;;;11.29;100.00;101585.38;5159964;28;20033;-77
2021/10/01 06:52:28;;;;;;;4.20;1.25;;;;;;;11.28;100.00;101572.94;5142574;28;20030;-77
2021/10/01 07:35:06;;;;;;;7.22;1.85;;;;;;;13.77;100.00;101560.16;5159153;28;20545;-76
2021/10/01 07:45:23;;;;;;;7.47;1.55;;;;;;;13.25;100.00;101565.03;5158280;28;20034;-76
2021/10/01 08:20:06;;;;;;;2.45;1.25;;;;;;;13.66;100.00;101564.06;5158301;28;20070;-77
2021/10/01 08:22:37;;;;;;;7.05;1.38;;;;;;;13.84;100.00;101560.31;5141275;28;20410;-77
2021/10/01 08:25:08;;;;;;;5.57;1.35;;;;;;;13.99;100.00;101547.81;5159359;28;20026;-76
2021/10/01 08:27:40;;;;;;;7.60;1.70;;;;;;;14.08;100.00;101548.66;5158883;28;20546;-76
2021/10/01 08:30:12;;;;;;;6.68;1.35;;;;;;;14.23;100.00;101545.06;5158059;28;20098;-76
2021/10/01 08:32:42;;;;;;;6.13;1.17;;;;;;;14.20;100.00;101541.88;5141410;28;20376;-76
2021/10/01 08:35:13;;;;;;;6.60;1.60;;;;;;;14.16;100.00;101549.47;5141117;28;20469;-77
2021/10/01 08:37:43;;;;;;;7.22;1.77;;;;;;;14.11;100.00;101548.31;5140807;28;20022;-76
2021/10/01 08:40:14;;;;;;;8.95;1.75;;;;;;;14.14;100.00;101545.25;5157752;28;20039;-76
2021/10/01 08:42:45;;;;;;;7.07;1.35;;;;;;;14.28;100.00;101543.72;5151371;28;20514;-76
2021/10/01 08:45:18;;;;;;;10.25;1.40;;;;;;;14.31;100.00;101532.53;5152605;28;20034;-76
2021/10/01 08:47:49;;;;;;;3.63;1.35;;;;;;;14.21;100.00;101533.63;5141304;28;20032;-77
2021/10/01 08:50:21;;;;;;;6.63;1.00;;;;;;;14.39;100.00;101527.13;5157704;28;20410;-76
2021/10/01 08:52:53;;;;;;;6.00;1.13;;;;;;;14.33;100.00;101538.63;5158587;28;20038;-76
2021/10/01 08:55:24;;;;;;;3.53;1.10;;;;;;;14.41;100.00;101534.06;5140734;28;20030;-76
2021/10/01 08:57:54;;;;;;;3.53;1.10;;;;;;;15.11;100.00;101530.50;5140949;28;20072;-76
2021/10/01 09:00:25;;;;;;;1.77;0.80;;;;;;;15.76;100.00;101523.72;5157695;28;20040;-75
2021/10/01 09:02:55;;;;;;;10.95;1.45;;;;;;;16.05;100.00;101517.53;5140931;28;20390;-76
2021/10/01 09:05:26;;;;;;;5.22;1.30;;;;;;;15.91;100.00;101530.00;5157942;28;20491;-76
2021/10/01 09:08:10;;;;;;;4.57;1.35;;;;;;;15.58;100.00;101518.63;5158725;28;20089;-76
2021/10/01 09:10:40;;;;;;;6.68;1.40;;;;;;;15.28;100.00;101515.00;5148261;28;20337;-76
2021/10/01 09:13:11;;;;;;;5.13;1.45;;;;;;;14.89;100.00;101509.69;5161509;28;20132;-76
2021/10/01 09:15:42;;;;;;;3.08;0.90;;;;;;;15.03;100.00;101511.63;5161648;28;20442;-76
2021/10/01 09:18:12;;;;;;;8.77;0.85;;;;;;;14.82;100.00;101506.88;5144030;28;20395;-77
2021/10/01 09:20:44;;;;;;;4.45;1.25;;;;;;;14.77;100.00;101499.31;5161231;28;20030;-76
2021/10/01 09:23:18;;;;;;;10.55;1.42;;;;;;;14.73;100.00;101497.13;5161336;28;20050;-76
2021/10/01 09:25:48;;;;;;;9.23;1.70;;;;;;;14.93;100.00;101492.13;5161595;28;20049;-77
2021/10/01 09:28:19;;;;;;;5.47;1.17;;;;;;;15.27;100.00;101484.44;5143954;28;20050;-77
2021/10/01 09:30:50;;;;;;;4.93;1.80;;;;;;;15.84;100.00;101490.34;5160651;28;20034;-76
2021/10/01 09:33:21;;;;;;;7.28;1.35;;;;;;;15.97;100.00;101485.16;5161666;28;20058;-77
2021/10/01 09:36:07;;;;;;;6.53;1.75;;;;;;;16.25;100.00;101485.31;5161326;28;20118;-77
2021/10/01 09:38:40;;;;;;;5.88;2.10;;;;;;;16.16;100.00;101486.44;5161168;28;20022;-76
2021/10/01 09:41:15;;;;;;;9.23;0.90;;;;;;;16.27;100.00;101491.41;5143279;28;20507;-76
2021/10/01 09:43:45;;;;;;;8.70;0.95;;;;;;;16.23;100.00;101484.69;5148922;28;20035;-77
2021/10/01 09:46:15;;;;;;;5.40;1.48;;;;;;;16.52;100.00;101473.81;5144117;28;20023;-78
2021/10/01 09:48:47;;;;;;;7.80;1.13;;;;;;;16.80;100.00;101484.75;5160924;28;20486;-77
2021/10/01 09:51:20;;;;;;;6.28;1.65;;;;;;;16.49;100.00;101478.75;5143341;28;20030;-77
2021/10/01 09:53:52;;;;;;;9.32;1.40;;;;;;;16.54;100.00;101481.72;5161247;28;20061;-77
2021/10/01 09:56:27;;;;;;;9.13;1.02;;;;;;;16.13;100.00;101482.25;5161095;28;20034;-76
2021/10/01 09:59:09;;;;;;;8.65;1.20;;;;;;;15.88;100.00;101480.84;5127082;28;20522;-77
2021/10/01 10:02:08;;;;;;;7.72;1.25;;;;;;;15.63;100.00;101472.97;5161264;28;20030;-77
2021/10/01 10:04:52;;;;;;;2.35;1.00;;;;;;;15.48;100.00;101486.44;5161159;28;20407;-77
2021/10/01 10:07:25;;;;;;;4.70;0.80;;;;;;;15.55;100.00;101473.84;5160675;28;20026;-77
2021/10/01 10:10:03;;;;;;;5.63;1.15;;;;;;;15.43;100.00;101474.50;5159817;28;20072;-76
2021/10/01 10:12:35;;;;;;;6.38;1.00;;;;;;;15.56;100.00;101472.00;5161039;28;20022;-76
2021/10/01 10:15:12;;;;;;;8.15;1.85;;;;;;;15.62;100.00;101473.97;5143231;28;20160;-77
2021/10/01 10:17:51;;;;;;;4.68;0.88;;;;;;;15.76;100.00;101475.91;5161096;28;20026;-77
2021/10/01 10:20:21;;;;;;;5.63;1.40;;;;;;;15.84;100.00;101461.44;5159514;28;20054;-78
2021/10/01 10:22:52;;;;;;;5.32;1.23;;;;;;;15.89;100.00;101450.91;5143166;28;20064;-78
2021/10/01 10:25:22;;;;;;;5.03;1.08;;;;;;;16.08;100.00;101457.63;5128476;28;20030;-78
2021/10/01 10:27:53;;;;;;;7.75;1.13;;;;;;;16.21;100.00;101454.22;5160592;28;20040;-78
2021/10/01 10:30:23;;;;;;;9.57;1.30;;;;;;;16.44;100.00;101448.69;5161071;28;20061;-75
2021/10/01 10:32:54;;;;;;;3.75;0.90;;;;;;;16.40;100.00;101448.22;5160132;28;20345;-75
2021/10/01 10:35:38;;;;;;;15.13;1.85;;;;;;;16.31;100.00;101438.53;5160252;28;20475;-75
2021/10/01 10:38:30;;;;;;;4.43;1.10;;;;;;;16.26;100.00;101433.69;5160150;28;20038;-75
2021/10/01 10:41:21;;;;;;;5.47;1.40;;;;;;;16.23;100.00;101430.53;5159453;28;20105;-76
2021/10/01 10:43:52;;;;;;;8.23;1.77;;;;;;;16.45;100.00;101428.69;5147219;28;20031;-75
2021/10/01 10:46:34;;;;;;;10.15;1.80;;;;;;;16.58;100.00;101420.75;5159921;28;20052;-75
2021/10/01 10:49:14;;;;;;;7.10;1.35;;;;;;;16.47;100.00;101415.81;5159663;28;20434;-75
2021/10/01 10:51:57;;;;;;;6.13;0.90;;;;;;;16.66;100.00;101428.72;5159461;28;20030;-75
2021/10/01 10:54:31;;;;;;;6.47;1.35;;;;;;;16.70;100.00;101427.31;5160092;28;20085;-75
2021/10/01 10:57:21;;;;;;;4.57;0.90;;;;;;;16.91;100.00;101417.53;5159797;28;20394;-75
2021/10/01 10:59:54;;;;;;;6.07;1.90;;;;;;;16.97;100.00;101428.47;5159084;28;20030;-74
2021/10/01 11:02:32;;;;;;;5.63;1.20;;;;;;;17.10;100.00;101419.59;5159224;28;20498;-75
2021/10/01 11:05:26;;;;;;;6.40;1.77;;;;;;;16.97;100.00;101428.47;5159678;28;20026;-75
2021/10/01 11:08:05;;;;;;;5.38;1.17;;;;;;;16.71;100.00;101423.59;5159462;28;20088;-75
2021/10/01 11:10:45;;;;;;;5.18;1.08;;;;;;;16.95;100.00;101430.50;5158717;28;20050;-75
2021/10/01 11:13:19;;;;;;;2.85;0.90;;;;;;;16.96;100.00;101434.06;5159923;28;20410;-75
2021/10/01 11:16:09;;;;;;;8.98;0.90;;;;;;;17.19;100.00;101428.44;5160292;28;20419;-75
2021/10/01 11:18:43;;;;;;;7.20;1.05;;;;;;;17.00;100.00;101430.78;5148454;28;20026;-81
2021/10/01 11:21:27;;;;;;;5.57;1.10;;;;;;;17.03;100.00;101424.13;5161436;28;20041;-77
2021/10/01 11:24:12;;;;;;;6.53;1.48;;;;;;;17.29;100.00;101427.06;5162395;28;20041;-77
2021/10/01 11:26:48;;;;;;;6.28;1.27;;;;;;;17.29;100.00;101424.34;5148498;28;20399;-76
2021/10/01 11:29:34;;;;;;;6.88;1.25;;;;;;;17.12;100.00;101422.09;5158936;28;20459;-77
2021/10/01 11:32:16;;;;;;;9.65;1.30;;;;;;;16.92;100.00;101425.50;5162495;28;20045;-79
2021/10/01 11:34:50;;;;;;;3.40;0.93;;;;;;;16.91;100.00;101428.38;5147367;28;20022;-75
2021/10/01 11:37:22;;;;;;;2.53;1.05;;;;;;;16.92;100.00;101427.34;5144376;28;20042;-79
2021/10/01 11:39:56;;;;;;;5.65;1.42;;;;;;;16.93;100.00;101432.59;5146122;28;20030;-76
2021/10/01 11:42:32;;;;;;;6.90;1.27;;;;;;;16.68;100.00;101428.56;5161844;28;20014;-77
2021/10/01 11:45:16;;;;;;;;;;;;;;;16.60;100.00;101425.94;5159715;28;20463;-76
2021/10/01 11:47:53;;;;;;;5.80;0.85;;;;;;;16.42;100.00;101410.97;5129423;28;19910;-77
2021/10/01 11:50:34;;;;;;;7.13;1.35;;;;;;;16.44;100.00;101418.91;5158445;28;20109;-76
2021/10/01 11:53:15;;;;;;;7.53;0.95;;;;;;;16.49;100.00;101413.75;5158043;28;20026;-77
2021/10/01 11:56:01;;;;;;;7.60;0.80;;;;;;;16.49;100.00;101419.16;5141477;28;20050;-76
2021/10/01 11:58:34;;;;;;;3.90;0.93;;;;;;;16.46;100.00;101414.13;5158028;28;20053;-77
2021/10/01 12:01:12;;;;;;;4.50;1.23;;;;;;;16.52;100.00;101408.81;5158719;28;20365;-77
2021/10/01 12:03:51;;;;;;;6.25;1.25;;;;;;;16.52;100.00;101410.69;5158295;28;20026;-77
2021/10/01 12:06:30;;;;;;;6.15;1.75;;;;;;;16.56;100.00;101418.19;5141617;28;20561;-76
2021/10/01 12:09:04;;;;;;;9.55;1.58;;;;;;;16.63;100.00;101410.16;5140051;28;20064;-77
2021/10/01 12:11:37;;;;;;;5.75;1.40;;;;;;;16.60;100.00;101407.00;5161942;28;20030;-75
2021/10/01 12:14:13;;;;;;;7.10;0.95;;;;;;;16.51;100.00;101406.25;5159135;28;20103;-77
2021/10/01 12:16:57;;;;;;;6.88;1.38;;;;;;;16.48;100.00;101401.25;5158437;28;20129;-75
2021/10/01 12:19:29;;;;;;;6.68;1.27;;;;;;;16.49;100.00;101400.22;5157129;28;20113;-75
2021/10/01 12:22:07;;;;;;;4.18;0.95;;;;;;;16.58;100.00;101407.19;5158852;28;20023;-76
2021/10/01 12:24:53;;;;;;;8.35;1.67;;;;;;;16.56;100.00;101399.25;5158472;28;20387;-77
2021/10/01 12:27:39;;;;;;;3.63;1.20;;;;;;;16.64;100.00;101400.16;5141816;28;20030;-76
2021/10/01 12:30:11;;;;;;;3.72;1.23;;;;;;;16.70;100.00;101396.69;5130388;28;20023;-76
2021/10/01 12:32:42;;;;;;;8.80;1.42;;;;;;;16.49;100.00;101398.34;5158181;28;20037;-76
2021/10/01 12:35:13;;;;;;;3.25;1.30;;;;;;;16.51;100.00;101400.84;5158728;28;20027;-75
2021/10/01 12:37:44;;;;;;;5.28;1.10;;;;;;;16.48;100.00;101401.25;5141529;28;20030;-79
2021/10/01 12:40:14;;;;;;;5.53;1.00;;;;;;;16.54;100.00;101403.19;5162108;28;20027;-77
2021/10/01 12:42:51;;;;;;;6.32;1.50;;;;;;;16.46;100.00;101398.72;5140514;28;20339;-75
2021/10/01 12:45:22;;;;;;;4.72;1.30;;;;;;;16.51;100.00;101393.56;5161597;28;20022;-76
2021/10/01 12:47:52;;;;;;;2.55;0.90;;;;;;;16.49;100.00;101398.34;5162196;28;20026;-76
2021/10/01 12:50:33;;;;;;;3.80;1.27;;;;;;;16.57;100.00;101389.28;5161309;28;20562;-76
2021/10/01 12:53:04;;;;;;;7.13;1.40;;;;;;;16.62;100.00;101392.25;5162407;28;20058;-74
2021/10/01 12:55:35;;;;;;;5.75;1.10;;;;;;;16.49;100.00;101398.34;5162336;28;20114;-74
2021/10/01 12:58:06;;;;;;;8.38;1.20;;;;;;;16.45;100.00;101393.50;5162231;28;20105;-74
2021/10/01 13:00:38;;;;;;;6.60;1.05;;;;;;;16.39;100.00;101383.44;5143609;28;20018;-74
2021/10/01 13:03:09;;;;;;;8.63;2.03;;;;;;;16.40;100.00;101388.66;5127862;28;20422;-75
2021/10/01 13:05:42;;;;;;;6.32;1.23;;;;;;;16.33;100.00;101386.91;5162351;28;20345;-75
2021/10/01 13:08:15;;;;;;;11.18;1.13;;;;;;;16.20;100.00;101385.72;5161440;28;20026;-75
2021/10/01 13:10:53;;;;;;;6.90;1.20;;;;;;;16.15;100.00;101390.03;5161282;28;20026;-76
2021/10/01 13:13:28;;;;;;;4.32;1.92;;;;;;;16.14;100.00;101375.66;5161643;28;20034;-76